Time,TemperatureF,DewpointF,PressureIn,WindDirection,WindDirectionDegrees,WindSpeedMPH,WindSpeedGustMPH,Humidity,HourlyPrecipIn,Conditions,Clouds,dailyrainin,SoftwareType,DateUTC
2013-02-26 00:00:00,43.4,28.8,29.78,North,0,2.0,3.0,56,0.00,,,0.00,VWS V14.01,2013-02-26 08:00:00,
2013-02-26 00:01:00,43.7,36.0,29.77,NNW,337,3.0,10.0,74,0.00,,,0.00,VWS V14.01,2013-02-26 08:01:00,
2013-02-26 00:06:00,43.7,36.3,29.77,NNW,337,2.0,10.0,75,0.00,,,0.00,VWS V14.01,2013-02-26 08:06:00,
2013-02-26 00:11:00,43.5,36.1,29.77,NNW,337,4.0,10.0,75,0.00,,,0.00,VWS V14.01,2013-02-26 08:11:00,
2013-02-26 00:16:00,43.4,36.0,29.78,NNW,337,0.0,10.0,75,0.00,,,0.00,VWS V14.01,2013-02-26 08:16:00,
2013-02-26 00:21:00,43.1,35.7,29.77,NNW,337,0.0,10.0,75,0.00,,,0.00,VWS V14.01,2013-02-26 08:21:00,
2013-02-26 00:26:00,42.8,35.8,29.77,NNW,337,0.0,10.0,76,0.00,,,0.00,VWS V14.01,2013-02-26 08:26:00,
2013-02-26 00:30:00,43.3,30.0,29.79,North,0,1.0,3.0,59,0.00,,,0.00,VWS V14.01,2013-02-26 08:30:00,
2013-02-26 00:31:00,42.7,36.0,29.77,NNW,337,0.0,10.0,77,0.00,,,0.00,VWS V14.01,2013-02-26 08:31:00,
2013-02-26 00:36:00,42.4,35.7,29.77,NNW,337,0.0,10.0,77,0.00,,,0.00,VWS V14.01,2013-02-26 08:36:00,
2013-02-26 00:41:00,42.2,35.8,29.77,NNW,337,0.0,10.0,78,0.00,,,0.00,VWS V14.01,2013-02-26 08:41:00,
2013-02-26 00:46:00,42.3,35.6,29.77,NNW,337,0.0,10.0,77,0.00,,,0.00,VWS V14.01,2013-02-26 08:46:00,
2013-02-26 00:51:00,42.3,35.9,29.76,NNW,337,0.0,10.0,78,0.00,,,0.00,VWS V14.01,2013-02-26 08:51:00,
2013-02-26 00:56:00,42.2,35.5,29.76,NNW,337,0.0,10.0,77,0.00,,,0.00,VWS V14.01,2013-02-26 08:56:00,
2013-02-26 01:00:00,43.1,32.5,29.79,North,0,2.0,5.0,66,0.00,,,0.00,VWS V14.01,2013-02-26 09:00:00,
2013-02-26 01:01:00,42.2,35.5,29.76,NNW,337,0.0,10.0,77,0.00,,,0.00,VWS V14.01,2013-02-26 09:01:00,
2013-02-26 01:06:00,42.3,35.6,29.76,NNW,337,0.0,10.0,77,0.00,,,0.00,VWS V14.01,2013-02-26 09:06:00,
2013-02-26 01:11:00,42.1,35.4,29.76,NNW,338,2.0,10.0,77,0.00,,,0.00,VWS V14.01,2013-02-26 09:11:00,
2013-02-26 01:16:00,42.1,35.4,29.76,NNW,337,2.0,10.0,77,0.00,,,0.00,VWS V14.01,2013-02-26 09:16:00,
2013-02-26 01:21:00,41.9,35.2,29.76,NNW,337,2.0,10.0,77,0.00,,,0.00,VWS V14.01,2013-02-26 09:21:00,
2013-02-26 01:26:00,41.7,35.4,29.76,NNW,337,2.0,10.0,78,0.00,,,0.00,VWS V14.01,2013-02-26 09:26:00,
2013-02-26 01:30:00,43.0,33.2,29.81,North,0,2.0,4.0,68,0.00,,,0.00,VWS V14.01,2013-02-26 09:30:00,
2013-02-26 01:31:00,41.8,35.5,29.76,NNW,337,2.0,10.0,78,0.00,,,0.00,VWS V14.01,2013-02-26 09:31:00,
2013-02-26 01:36:00,41.7,35.0,29.77,NNW,337,2.0,10.0,77,0.00,,,0.00,VWS V14.01,2013-02-26 09:36:00,
2013-02-26 01:41:00,41.6,34.9,29.77,NNW,337,1.0,10.0,77,0.00,,,0.00,VWS V14.01,2013-02-26 09:41:00,
2013-02-26 01:46:00,41.5,34.8,29.76,NNW,337,3.0,10.0,77,0.00,,,0.00,VWS V14.01,2013-02-26 09:46:00,
2013-02-26 01:51:00,41.5,35.2,29.76,NNW,337,3.0,10.0,78,0.00,,,0.00,VWS V14.01,2013-02-26 09:51:00,
2013-02-26 01:56:00,41.5,34.8,29.76,NNW,337,1.0,10.0,77,0.00,,,0.00,VWS V14.01,2013-02-26 09:56:00,
2013-02-26 02:00:00,42.8,33.0,29.81,North,0,0.0,2.0,68,0.00,,,0.00,VWS V14.01,2013-02-26 10:00:00,
2013-02-26 02:01:00,41.6,34.6,29.76,NNW,337,1.0,10.0,76,0.00,,,0.00,VWS V14.01,2013-02-26 10:01:00,
2013-02-26 02:06:00,41.6,34.6,29.76,NNW,337,1.0,10.0,76,0.00,,,0.00,VWS V14.01,2013-02-26 10:06:00,
2013-02-26 02:11:00,41.7,34.4,29.77,NNW,337,0.0,10.0,75,0.00,,,0.00,VWS V14.01,2013-02-26 10:11:00,
2013-02-26 02:16:00,42.1,34.4,29.77,NNW,337,0.0,10.0,74,0.00,,,0.00,VWS V14.01,2013-02-26 10:16:00,
2013-02-26 02:21:00,42.0,34.3,29.76,NNW,337,0.0,10.0,74,0.00,,,0.00,VWS V14.01,2013-02-26 10:21:00,
2013-02-26 02:26:00,41.7,34.0,29.76,NNW,337,2.0,10.0,74,0.00,,,0.00,VWS V14.01,2013-02-26 10:26:00,
2013-02-26 02:30:00,42.1,32.3,29.81,North,0,0.0,0.0,68,0.00,,,0.00,VWS V14.01,2013-02-26 10:30:00,
2013-02-26 02:31:00,41.6,33.6,29.75,NNW,337,1.0,10.0,73,0.00,,,0.00,VWS V14.01,2013-02-26 10:31:00,
2013-02-26 02:36:00,41.5,33.5,29.76,NNW,337,2.0,10.0,73,0.00,,,0.00,VWS V14.01,2013-02-26 10:36:00,
2013-02-26 02:41:00,41.4,33.4,29.75,NNW,337,3.0,10.0,73,0.00,,,0.00,VWS V14.01,2013-02-26 10:41:00,
2013-02-26 02:46:00,41.4,33.1,29.75,NNW,337,3.0,10.0,72,0.00,,,0.00,VWS V14.01,2013-02-26 10:46:00,
2013-02-26 02:51:00,41.6,33.3,29.75,NNW,337,4.0,10.0,72,0.00,,,0.00,VWS V14.01,2013-02-26 10:51:00,
2013-02-26 02:56:00,41.7,33.0,29.75,NNW,337,3.0,10.0,71,0.00,,,0.00,VWS V14.01,2013-02-26 10:56:00,
2013-02-26 03:00:00,41.5,32.8,29.82,North,0,1.0,3.0,71,0.00,,,0.00,VWS V14.01,2013-02-26 11:00:00,
2013-02-26 03:01:00,41.8,33.1,29.74,NNW,338,3.0,10.0,71,0.00,,,0.00,VWS V14.01,2013-02-26 11:01:00,
2013-02-26 03:06:00,41.8,32.8,29.75,NNW,337,3.0,10.0,70,0.00,,,0.00,VWS V14.01,2013-02-26 11:06:00,
2013-02-26 03:11:00,41.9,32.8,29.74,NNW,337,2.0,10.0,70,0.00,,,0.00,VWS V14.01,2013-02-26 11:11:00,
2013-02-26 03:16:00,42.0,32.6,29.74,NNW,337,2.0,10.0,69,0.00,,,0.00,VWS V14.01,2013-02-26 11:16:00,
2013-02-26 03:21:00,42.0,32.6,29.74,NNW,337,2.0,10.0,69,0.00,,,0.00,VWS V14.01,2013-02-26 11:21:00,
2013-02-26 03:26:00,42.0,32.6,29.74,NNW,337,2.0,10.0,69,0.00,,,0.00,VWS V14.01,2013-02-26 11:26:00,
2013-02-26 03:30:00,41.8,33.8,29.82,North,0,1.0,4.0,73,0.00,,,0.00,VWS V14.01,2013-02-26 11:30:00,
2013-02-26 03:31:00,41.7,32.3,29.74,NNW,337,2.0,10.0,69,0.00,,,0.00,VWS V14.01,2013-02-26 11:31:00,
2013-02-26 03:36:00,41.5,32.5,29.75,NNW,337,2.0,10.0,70,0.00,,,0.00,VWS V14.01,2013-02-26 11:36:00,
2013-02-26 03:41:00,41.4,32.4,29.74,NNW,337,3.0,10.0,70,0.00,,,0.00,VWS V14.01,2013-02-26 11:41:00,
2013-02-26 03:46:00,41.3,32.3,29.74,NNW,337,1.0,10.0,70,0.00,,,0.00,VWS V14.01,2013-02-26 11:46:00,
2013-02-26 03:51:00,41.2,32.2,29.74,NNW,337,2.0,10.0,70,0.00,,,0.00,VWS V14.01,2013-02-26 11:51:00,
2013-02-26 03:56:00,41.0,32.0,29.74,NNW,337,2.0,10.0,70,0.00,,,0.00,VWS V14.01,2013-02-26 11:56:00,
2013-02-26 04:00:00,41.2,34.5,29.81,North,0,2.0,4.0,77,0.00,,,0.00,VWS V14.01,2013-02-26 12:00:00,
2013-02-26 04:01:00,41.1,32.1,29.74,NNW,338,0.0,10.0,70,0.00,,,0.00,VWS V14.01,2013-02-26 12:01:00,
2013-02-26 04:06:00,40.9,31.9,29.75,NNW,337,0.0,10.0,70,0.00,,,0.00,VWS V14.01,2013-02-26 12:06:00,
2013-02-26 04:11:00,40.8,31.8,29.75,NNW,337,0.0,10.0,70,0.00,,,0.00,VWS V14.01,2013-02-26 12:11:00,
2013-02-26 04:17:00,40.7,32.0,29.75,NNW,337,0.0,10.0,71,0.00,,,0.00,VWS V14.01,2013-02-26 12:17:00,
2013-02-26 04:22:00,40.5,31.9,29.75,NNW,337,0.0,10.0,71,0.00,,,0.00,VWS V14.01,2013-02-26 12:22:00,
2013-02-26 04:27:00,40.5,31.9,29.75,NNW,338,0.0,10.0,71,0.00,,,0.00,VWS V14.01,2013-02-26 12:27:00,
2013-02-26 04:30:00,41.0,34.3,29.81,North,0,2.0,4.0,77,0.00,,,0.00,VWS V14.01,2013-02-26 12:30:00,
2013-02-26 04:32:00,40.7,31.7,29.75,NNW,337,0.0,10.0,70,0.00,,,0.00,VWS V14.01,2013-02-26 12:32:00,
2013-02-26 04:37:00,41.1,31.7,29.75,NNW,337,0.0,10.0,69,0.00,,,0.00,VWS V14.01,2013-02-26 12:37:00,
2013-02-26 04:42:00,41.1,32.1,29.75,NNW,337,0.0,10.0,70,0.00,,,0.00,VWS V14.01,2013-02-26 12:42:00,
2013-02-26 04:47:00,40.5,31.5,29.74,NNW,337,0.0,10.0,70,0.00,,,0.00,VWS V14.01,2013-02-26 12:47:00,
2013-02-26 04:52:00,40.0,31.4,29.75,NNW,338,0.0,10.0,71,0.00,,,0.00,VWS V14.01,2013-02-26 12:52:00,
2013-02-26 04:57:00,39.5,31.6,29.75,NNW,337,3.0,10.0,73,0.00,,,0.00,VWS V14.01,2013-02-26 12:57:00,
2013-02-26 05:00:00,41.8,35.8,29.80,North,0,3.0,6.0,79,0.00,,,0.00,VWS V14.01,2013-02-26 13:00:00,
2013-02-26 05:02:00,39.3,31.4,29.75,NNW,337,1.0,10.0,73,0.00,,,0.00,VWS V14.01,2013-02-26 13:02:00,
2013-02-26 05:07:00,39.1,31.2,29.75,NNW,337,3.0,10.0,73,0.00,,,0.00,VWS V14.01,2013-02-26 13:07:00,
2013-02-26 05:12:00,39.0,31.4,29.75,NNW,337,3.0,10.0,74,0.00,,,0.00,VWS V14.01,2013-02-26 13:12:00,
2013-02-26 05:17:00,39.2,31.6,29.75,NNW,337,2.0,10.0,74,0.00,,,0.00,VWS V14.01,2013-02-26 13:17:00,
2013-02-26 05:22:00,39.1,31.5,29.75,NNW,337,2.0,10.0,74,0.00,,,0.00,VWS V14.01,2013-02-26 13:22:00,
2013-02-26 05:27:00,39.1,31.5,29.75,NNW,337,3.0,10.0,74,0.00,,,0.00,VWS V14.01,2013-02-26 13:27:00,
2013-02-26 05:30:00,42.5,36.1,29.80,North,0,1.0,3.0,78,0.00,,,0.00,VWS V14.01,2013-02-26 13:30:00,
2013-02-26 05:32:00,39.3,32.0,29.76,NNW,337,2.0,10.0,75,0.00,,,0.00,VWS V14.01,2013-02-26 13:32:00,
2013-02-26 05:37:00,39.1,31.9,29.75,NNW,337,3.0,10.0,75,0.00,,,0.00,VWS V14.01,2013-02-26 13:37:00,
2013-02-26 05:42:00,39.1,31.9,29.76,NNW,337,3.0,10.0,75,0.00,,,0.00,VWS V14.01,2013-02-26 13:42:00,
2013-02-26 05:47:00,39.1,31.9,29.75,NNW,337,1.0,10.0,75,0.00,,,0.00,VWS V14.01,2013-02-26 13:47:00,
2013-02-26 05:52:00,39.1,31.9,29.76,NNW,338,3.0,10.0,75,0.00,,,0.00,VWS V14.01,2013-02-26 13:52:00,
2013-02-26 05:57:00,39.1,31.9,29.76,NNW,337,2.0,10.0,75,0.00,,,0.00,VWS V14.01,2013-02-26 13:57:00,
2013-02-26 06:00:00,41.2,35.2,29.80,North,0,0.0,2.0,79,0.00,,,0.00,VWS V14.01,2013-02-26 14:00:00,
2013-02-26 06:02:00,39.3,32.0,29.77,NNW,337,2.0,10.0,75,0.00,,,0.00,VWS V14.01,2013-02-26 14:02:00,
2013-02-26 06:07:00,39.1,31.9,29.77,NNW,337,3.0,10.0,75,0.00,,,0.00,VWS V14.01,2013-02-26 14:07:00,
2013-02-26 06:12:00,39.2,32.0,29.76,NNW,337,1.0,10.0,75,0.00,,,0.00,VWS V14.01,2013-02-26 14:12:00,
2013-02-26 06:17:00,39.3,32.0,29.77,NNW,337,2.0,10.0,75,0.00,,,0.00,VWS V14.01,2013-02-26 14:17:00,
2013-02-26 06:22:00,39.1,31.9,29.76,NNW,337,3.0,10.0,75,0.00,,,0.00,VWS V14.01,2013-02-26 14:22:00,
2013-02-26 06:27:00,38.9,31.7,29.76,NNW,337,1.0,10.0,75,0.00,,,0.00,VWS V14.01,2013-02-26 14:27:00,
2013-02-26 06:30:00,39.8,34.8,29.82,North,0,1.0,5.0,82,0.00,,,0.00,VWS V14.01,2013-02-26 14:30:00,
2013-02-26 06:32:00,38.7,31.8,29.76,NNW,337,3.0,10.0,76,0.00,,,0.00,VWS V14.01,2013-02-26 14:32:00,
2013-02-26 06:37:00,38.7,31.8,29.76,NNW,337,0.0,10.0,76,0.00,,,0.00,VWS V14.01,2013-02-26 14:37:00,
2013-02-26 06:42:00,38.7,31.8,29.77,NNW,337,3.0,10.0,76,0.00,,,0.00,VWS V14.01,2013-02-26 14:42:00,
2013-02-26 06:47:00,38.6,31.7,29.76,NNW,337,4.0,10.0,76,0.00,,,0.00,VWS V14.01,2013-02-26 14:47:00,
2013-02-26 06:52:00,38.2,31.3,29.76,NNW,337,2.0,10.0,76,0.00,,,0.00,VWS V14.01,2013-02-26 14:52:00,
2013-02-26 06:57:00,38.0,31.4,29.76,NNW,337,2.0,10.0,77,0.00,,,0.00,VWS V14.01,2013-02-26 14:57:00,
2013-02-26 07:00:00,39.9,34.5,29.82,North,0,1.0,4.0,81,0.00,,,0.00,VWS V14.01,2013-02-26 15:00:00,
2013-02-26 07:02:00,38.1,31.9,29.76,NNW,337,2.0,10.0,78,0.00,,,0.00,VWS V14.01,2013-02-26 15:02:00,
2013-02-26 07:07:00,38.1,31.9,29.77,NNW,337,3.0,10.0,78,0.00,,,0.00,VWS V14.01,2013-02-26 15:07:00,
2013-02-26 07:12:00,38.4,32.2,29.76,NNW,337,3.0,10.0,78,0.00,,,0.00,VWS V14.01,2013-02-26 15:12:00,
2013-02-26 07:17:00,38.6,32.0,29.76,NNW,337,3.0,10.0,77,0.00,,,0.00,VWS V14.01,2013-02-26 15:17:00,
2013-02-26 07:22:00,38.9,32.3,29.77,NNW,337,2.0,10.0,77,0.00,,,0.00,VWS V14.01,2013-02-26 15:22:00,
2013-02-26 07:27:00,39.2,32.3,29.77,NNW,337,3.0,10.0,76,0.00,,,0.00,VWS V14.01,2013-02-26 15:27:00,
2013-02-26 07:30:00,39.7,35.0,29.82,North,0,2.0,4.0,83,0.00,,,0.00,VWS V14.01,2013-02-26 15:30:00,
2013-02-26 07:32:00,39.5,32.6,29.77,NNW,337,2.0,10.0,76,0.00,,,0.00,VWS V14.01,2013-02-26 15:32:00,
2013-02-26 07:37:00,40.3,33.3,29.77,NNW,337,3.0,10.0,76,0.00,,,0.00,VWS V14.01,2013-02-26 15:37:00,
2013-02-26 07:42:00,40.9,33.3,29.77,NNW,337,2.0,10.0,74,0.00,,,0.00,VWS V14.01,2013-02-26 15:42:00,
2013-02-26 07:55:00,38.4,31.5,29.76,NNW,338,3.0,4.0,76,0.00,,,0.00,VWS V14.01,2013-02-26 15:55:00,
2013-02-26 08:00:00,42.0,32.9,29.77,NNW,338,2.0,4.0,70,0.00,,,0.00,VWS V14.01,2013-02-26 16:00:00,
2013-02-26 08:05:00,41.9,32.8,29.77,NNW,337,0.0,4.0,70,0.00,,,0.00,VWS V14.01,2013-02-26 16:05:00,
2013-02-26 08:10:00,42.2,32.4,29.77,NNW,337,0.0,4.0,68,0.00,,,0.00,VWS V14.01,2013-02-26 16:10:00,
2013-02-26 08:15:00,43.0,33.2,29.78,NNW,337,2.0,4.0,68,0.00,,,0.00,VWS V14.01,2013-02-26 16:15:00,
2013-02-26 08:20:00,43.9,34.0,29.77,NNW,338,1.0,4.0,68,0.00,,,0.00,VWS V14.01,2013-02-26 16:20:00,
2013-02-26 08:25:00,45.1,34.4,29.78,NNW,337,2.0,4.0,66,0.00,,,0.00,VWS V14.01,2013-02-26 16:25:00,
2013-02-26 08:30:00,45.9,34.4,29.78,NNW,337,0.0,4.0,64,0.00,,,0.00,VWS V14.01,2013-02-26 16:30:00,
2013-02-26 08:35:00,46.4,34.5,29.77,NNW,337,0.0,4.0,63,0.00,,,0.00,VWS V14.01,2013-02-26 16:35:00,
2013-02-26 08:40:00,46.6,34.7,29.78,NNW,337,0.0,4.0,63,0.00,,,0.00,VWS V14.01,2013-02-26 16:40:00,
2013-02-26 08:45:00,47.5,35.5,29.78,NNW,337,0.0,4.0,63,0.00,,,0.00,VWS V14.01,2013-02-26 16:45:00,
2013-02-26 08:50:00,48.4,35.2,29.78,NNW,337,0.0,4.0,60,0.00,,,0.00,VWS V14.01,2013-02-26 16:50:00,
2013-02-26 08:55:00,49.7,36.0,29.78,NNW,337,0.0,4.0,59,0.00,,,0.00,VWS V14.01,2013-02-26 16:55:00,
2013-02-26 09:00:00,51.0,36.8,29.79,NNW,337,0.0,4.0,58,0.00,,,0.00,VWS V14.01,2013-02-26 17:00:00,
2013-02-26 09:05:00,52.2,36.5,29.79,NNW,337,0.0,4.0,55,0.00,,,0.00,VWS V14.01,2013-02-26 17:05:00,
2013-02-26 09:10:00,52.8,34.2,29.78,NNW,338,0.0,4.0,49,0.00,,,0.00,VWS V14.01,2013-02-26 17:10:00,
2013-02-26 09:15:00,53.6,33.9,29.79,NNW,337,0.0,4.0,47,0.00,,,0.00,VWS V14.01,2013-02-26 17:15:00,
2013-02-26 09:20:00,54.2,31.0,29.79,NNW,338,2.0,4.0,41,0.00,,,0.00,VWS V14.01,2013-02-26 17:20:00,
2013-02-26 09:25:00,54.3,29.2,29.79,NNW,337,0.0,4.0,38,0.00,,,0.00,VWS V14.01,2013-02-26 17:25:00,
2013-02-26 09:30:00,54.7,28.3,29.79,NNW,337,0.0,4.0,36,0.00,,,0.00,VWS V14.01,2013-02-26 17:30:00,
2013-02-26 09:35:00,54.9,28.5,29.78,NNW,337,0.0,4.0,36,0.00,,,0.00,VWS V14.01,2013-02-26 17:35:00,
2013-02-26 09:40:00,54.7,27.6,29.79,NNW,337,1.0,4.0,35,0.00,,,0.00,VWS V14.01,2013-02-26 17:40:00,
2013-02-26 09:45:00,54.6,26.8,29.78,NNW,337,0.0,4.0,34,0.00,,,0.00,VWS V14.01,2013-02-26 17:45:00,
2013-02-26 09:50:00,54.6,25.4,29.79,NNW,337,1.0,4.0,32,0.00,,,0.00,VWS V14.01,2013-02-26 17:50:00,
2013-02-26 09:55:00,54.8,24.8,29.78,NNW,337,0.0,4.0,31,0.00,,,0.00,VWS V14.01,2013-02-26 17:55:00,
2013-02-26 10:00:00,55.1,26.5,29.78,NNW,338,2.0,4.0,33,0.00,,,0.00,VWS V14.01,2013-02-26 18:00:00,
2013-02-26 10:06:00,55.5,25.4,29.78,NNW,337,2.0,4.0,31,0.00,,,0.00,VWS V14.01,2013-02-26 18:06:00,
2013-02-26 10:11:00,55.3,25.2,29.78,NNW,337,1.0,4.0,31,0.00,,,0.00,VWS V14.01,2013-02-26 18:11:00,
2013-02-26 10:16:00,55.6,24.7,29.77,NNW,337,0.0,4.0,30,0.00,,,0.00,VWS V14.01,2013-02-26 18:16:00,
2013-02-26 10:21:00,56.1,23.5,29.77,NNW,338,1.0,4.0,28,0.00,,,0.00,VWS V14.01,2013-02-26 18:21:00,
2013-02-26 10:26:00,56.6,24.7,29.78,NNW,337,1.0,4.0,29,0.00,,,0.00,VWS V14.01,2013-02-26 18:26:00,
2013-02-26 10:30:00,50.1,36.3,29.82,NNW,338,1.0,7.0,59,0.00,,,0.00,VWS V14.01,2013-02-26 18:30:00,
2013-02-26 10:31:00,57.3,24.5,29.78,NNW,337,3.0,4.0,28,0.00,,,0.00,VWS V14.01,2013-02-26 18:31:00,
2013-02-26 10:36:00,57.8,24.9,29.77,NNW,337,2.0,4.0,28,0.00,,,0.00,VWS V14.01,2013-02-26 18:36:00,
2013-02-26 10:41:00,58.5,24.7,29.77,NNW,338,2.0,5.0,27,0.00,,,0.00,VWS V14.01,2013-02-26 18:41:00,
2013-02-26 10:46:00,58.8,24.0,29.77,NNW,337,4.0,5.0,26,0.00,,,0.00,VWS V14.01,2013-02-26 18:46:00,
2013-02-26 10:51:00,59.0,25.1,29.76,NNW,338,1.0,5.0,27,0.00,,,0.00,VWS V14.01,2013-02-26 18:51:00,
2013-02-26 10:56:00,59.1,25.2,29.76,NNW,337,0.0,5.0,27,0.00,,,0.00,VWS V14.01,2013-02-26 18:56:00,
2013-02-26 11:00:00,51.8,35.2,29.81,NNW,338,5.0,8.0,53,0.00,,,0.00,VWS V14.01,2013-02-26 19:00:00,
2013-02-26 11:01:00,59.3,25.4,29.76,NNW,337,1.0,5.0,27,0.00,,,0.00,VWS V14.01,2013-02-26 19:01:00,
2013-02-26 11:06:00,59.1,26.0,29.76,NNW,337,1.0,5.0,28,0.00,,,0.00,VWS V14.01,2013-02-26 19:06:00,
2013-02-26 11:11:00,59.4,25.4,29.76,NNW,337,1.0,5.0,27,0.00,,,0.00,VWS V14.01,2013-02-26 19:11:00,
2013-02-26 11:16:00,59.4,22.6,29.77,NNW,339,4.0,5.0,24,0.00,,,0.00,VWS V14.01,2013-02-26 19:16:00,
2013-02-26 11:21:00,59.5,25.5,29.77,NNW,340,1.0,8.0,27,0.00,,,0.00,VWS V14.01,2013-02-26 19:21:00,
2013-02-26 11:26:00,59.4,21.6,29.77,NNW,341,3.0,8.0,23,0.00,,,0.00,VWS V14.01,2013-02-26 19:26:00,
2013-02-26 11:30:00,53.5,36.8,29.81,NNW,338,4.0,9.0,53,0.00,,,0.00,VWS V14.01,2013-02-26 19:30:00,
2013-02-26 11:31:00,59.6,22.8,29.77,NNW,341,1.0,8.0,24,0.00,,,0.00,VWS V14.01,2013-02-26 19:31:00,
2013-02-26 11:36:00,59.9,22.0,29.76,NNW,341,1.0,8.0,23,0.00,,,0.00,VWS V14.01,2013-02-26 19:36:00,
2013-02-26 11:41:00,60.1,21.1,29.76,NNW,341,2.0,8.0,22,0.00,,,0.00,VWS V14.01,2013-02-26 19:41:00,
2013-02-26 11:46:00,60.3,20.2,29.76,NNW,341,0.0,8.0,21,0.00,,,0.00,VWS V14.01,2013-02-26 19:46:00,
2013-02-26 11:51:00,60.7,21.7,29.76,NNW,341,2.0,8.0,22,0.00,,,0.00,VWS V14.01,2013-02-26 19:51:00,
2013-02-26 11:56:00,61.3,24.2,29.76,NNW,342,1.0,8.0,24,0.00,,,0.00,VWS V14.01,2013-02-26 19:56:00,
2013-02-26 12:00:00,55.5,38.2,29.81,NNW,338,3.0,7.0,52,0.00,,,0.00,VWS V14.01,2013-02-26 20:00:00,
2013-02-26 12:01:00,62.0,21.6,29.76,NNW,342,1.0,8.0,21,0.00,,,0.00,VWS V14.01,2013-02-26 20:01:00,
2013-02-26 12:06:00,62.3,20.8,29.76,NNW,347,1.0,8.0,20,0.00,,,0.00,VWS V14.01,2013-02-26 20:06:00,
2013-02-26 12:11:00,62.9,22.4,29.75,NNW,347,1.0,8.0,21,0.00,,,0.00,VWS V14.01,2013-02-26 20:11:00,
2013-02-26 12:16:00,63.2,21.5,29.75,NNW,348,0.0,8.0,20,0.00,,,0.00,VWS V14.01,2013-02-26 20:16:00,
2013-02-26 12:21:00,63.7,23.1,29.74,NNW,348,3.0,8.0,21,0.00,,,0.00,VWS V14.01,2013-02-26 20:21:00,
2013-02-26 12:26:00,64.4,22.5,29.75,NNW,348,0.0,8.0,20,0.00,,,0.00,VWS V14.01,2013-02-26 20:26:00,
2013-02-26 12:30:00,56.8,39.4,29.80,NNW,338,3.0,10.0,52,0.00,,,0.00,VWS V14.01,2013-02-26 20:30:00,
2013-02-26 12:31:00,65.0,24.1,29.74,NNW,348,1.0,8.0,21,0.00,,,0.00,VWS V14.01,2013-02-26 20:31:00,
2013-02-26 12:36:00,65.8,23.6,29.74,North,349,2.0,8.0,20,0.00,,,0.00,VWS V14.01,2013-02-26 20:36:00,
2013-02-26 12:41:00,66.0,22.6,29.74,North,354,1.0,8.0,19,0.00,,,0.00,VWS V14.01,2013-02-26 20:41:00,
2013-02-26 12:46:00,66.1,22.7,29.74,North,354,1.0,8.0,19,0.00,,,0.00,VWS V14.01,2013-02-26 20:46:00,
2013-02-26 12:51:00,66.4,24.1,29.73,North,354,3.0,8.0,20,0.00,,,0.00,VWS V14.01,2013-02-26 20:51:00,
2013-02-26 12:56:00,66.9,25.7,29.73,North,354,1.0,8.0,21,0.00,,,0.00,VWS V14.01,2013-02-26 20:56:00,
2013-02-26 13:00:00,57.7,39.2,29.80,NW,315,4.0,9.0,50,0.00,,,0.00,VWS V14.01,2013-02-26 21:00:00,
2013-02-26 13:01:00,67.0,24.6,29.73,North,354,3.0,8.0,20,0.00,,,0.00,VWS V14.01,2013-02-26 21:01:00,
2013-02-26 13:06:00,67.5,23.8,29.72,North,354,1.0,8.0,19,0.00,,,0.00,VWS V14.01,2013-02-26 21:06:00,
2013-02-26 13:11:00,67.9,24.1,29.72,North,354,5.0,8.0,19,0.00,,,0.00,VWS V14.01,2013-02-26 21:11:00,
2013-02-26 13:16:00,68.2,24.4,29.71,North,353,0.0,8.0,19,0.00,,,0.00,VWS V14.01,2013-02-26 21:16:00,
2013-02-26 13:21:00,68.7,24.8,29.71,North,354,1.0,8.0,19,0.00,,,0.00,VWS V14.01,2013-02-26 21:21:00,
2013-02-26 13:26:00,68.7,23.5,29.72,North,357,4.0,8.0,18,0.00,,,0.00,VWS V14.01,2013-02-26 21:26:00,
2013-02-26 13:30:00,59.8,41.1,29.78,NNW,338,4.0,10.0,50,0.00,,,0.00,VWS V14.01,2013-02-26 21:30:00,
2013-02-26 13:31:00,68.8,23.6,29.72,North,357,2.0,8.0,18,0.00,,,0.00,VWS V14.01,2013-02-26 21:31:00,
2013-02-26 13:36:00,69.3,24.0,29.72,North,357,3.0,8.0,18,0.00,,,0.00,VWS V14.01,2013-02-26 21:36:00,
2013-02-26 13:41:00,69.2,22.6,29.71,North,357,0.0,8.0,17,0.00,,,0.00,VWS V14.01,2013-02-26 21:41:00,
2013-02-26 13:46:00,69.1,23.9,29.71,North,357,1.0,8.0,18,0.00,,,0.00,VWS V14.01,2013-02-26 21:46:00,
2013-02-26 13:51:00,69.3,25.3,29.70,North,356,0.0,8.0,19,0.00,,,0.00,VWS V14.01,2013-02-26 21:51:00,
2013-02-26 13:56:00,70.0,24.6,29.71,North,357,2.0,8.0,18,0.00,,,0.00,VWS V14.01,2013-02-26 21:56:00,
2013-02-26 14:00:00,61.8,41.4,29.77,North,0,4.0,9.0,47,0.00,,,0.00,VWS V14.01,2013-02-26 22:00:00,
2013-02-26 14:01:00,70.4,26.2,29.70,North,357,0.0,8.0,19,0.00,,,0.00,VWS V14.01,2013-02-26 22:01:00,
2013-02-26 14:06:00,71.2,25.6,29.70,North,357,1.0,8.0,18,0.00,,,0.00,VWS V14.01,2013-02-26 22:06:00,
2013-02-26 14:11:00,71.5,25.8,29.70,North,356,3.0,8.0,18,0.00,,,0.00,VWS V14.01,2013-02-26 22:11:00,
2013-02-26 14:16:00,71.4,27.0,29.70,North,356,2.0,8.0,19,0.00,,,0.00,VWS V14.01,2013-02-26 22:16:00,
2013-02-26 14:21:00,72.2,26.4,29.70,North,356,1.0,8.0,18,0.00,,,0.00,VWS V14.01,2013-02-26 22:21:00,
2013-02-26 14:26:00,72.5,27.9,29.70,North,356,1.0,8.0,19,0.00,,,0.00,VWS V14.01,2013-02-26 22:26:00,
2013-02-26 14:30:00,62.6,42.1,29.77,North,0,3.0,7.0,47,0.00,,,0.00,VWS V14.01,2013-02-26 22:30:00,
2013-02-26 14:31:00,72.2,26.4,29.70,North,357,2.0,8.0,18,0.00,,,0.00,VWS V14.01,2013-02-26 22:31:00,
2013-02-26 14:36:00,69.7,25.6,29.70,SSE,160,0.0,8.0,19,0.00,,,0.00,VWS V14.01,2013-02-26 22:36:00,
2013-02-26 14:41:00,68.5,24.6,29.69,SSE,162,0.0,8.0,19,0.00,,,0.00,VWS V14.01,2013-02-26 22:41:00,
2013-02-26 14:46:00,68.3,26.9,29.69,SSE,153,1.0,8.0,21,0.00,,,0.00,VWS V14.01,2013-02-26 22:46:00,
2013-02-26 14:51:00,67.9,25.4,29.70,SE,137,2.0,8.0,20,0.00,,,0.00,VWS V14.01,2013-02-26 22:51:00,
2013-02-26 14:56:00,67.4,25.0,29.69,SSE,151,1.0,8.0,20,0.00,,,0.00,VWS V14.01,2013-02-26 22:56:00,
2013-02-26 15:00:00,63.3,42.2,29.77,North,0,4.0,9.0,46,0.00,,,0.00,VWS V14.01,2013-02-26 23:00:00,
2013-02-26 15:01:00,67.9,26.6,29.69,SSE,151,1.0,8.0,21,0.00,,,0.00,VWS V14.01,2013-02-26 23:01:00,
2013-02-26 15:06:00,68.3,26.9,29.69,SSE,154,0.0,8.0,21,0.00,,,0.00,VWS V14.01,2013-02-26 23:06:00,
2013-02-26 15:11:00,69.3,27.7,29.70,NNW,347,3.0,8.0,21,0.00,,,0.00,VWS V14.01,2013-02-26 23:11:00,
2013-02-26 15:16:00,70.3,30.8,29.69,North,353,4.0,8.0,23,0.00,,,0.00,VWS V14.01,2013-02-26 23:16:00,
2013-02-26 15:21:00,70.5,31.0,29.69,NW,324,6.0,8.0,23,0.00,,,0.00,VWS V14.01,2013-02-26 23:21:00,
2013-02-26 15:26:00,69.9,30.5,29.69,NW,324,5.0,8.0,23,0.00,,,0.00,VWS V14.01,2013-02-26 23:26:00,
2013-02-26 15:30:00,63.6,41.9,29.76,NNW,338,3.0,8.0,45,0.00,,,0.00,VWS V14.01,2013-02-26 23:30:00,
2013-02-26 15:31:00,69.4,31.1,29.69,NW,325,4.0,8.0,24,0.00,,,0.00,VWS V14.01,2013-02-26 23:31:00,
2013-02-26 15:36:00,69.0,30.7,29.69,NW,324,6.0,8.0,24,0.00,,,0.00,VWS V14.01,2013-02-26 23:36:00,
2013-02-26 15:41:00,68.4,30.2,29.69,NW,324,4.0,8.0,24,0.00,,,0.00,VWS V14.01,2013-02-26 23:41:00,
2013-02-26 15:46:00,67.5,31.4,29.70,NW,324,7.0,8.0,26,0.00,,,0.00,VWS V14.01,2013-02-26 23:46:00,
2013-02-26 15:51:00,66.4,31.4,29.70,NW,324,4.0,8.0,27,0.00,,,0.00,VWS V14.01,2013-02-26 23:51:00,
2013-02-26 15:56:00,65.9,31.0,29.70,NNW,333,5.0,8.0,27,0.00,,,0.00,VWS V14.01,2013-02-26 23:56:00,
2013-02-26 16:00:00,64.7,41.1,29.76,North,0,3.0,7.0,42,0.00,,,0.00,VWS V14.01,2013-02-27 00:00:00,
2013-02-26 16:01:00,66.0,31.1,29.69,NNW,333,3.0,8.0,27,0.00,,,0.00,VWS V14.01,2013-02-27 00:01:00,
2013-02-26 16:06:00,66.1,31.2,29.70,NNW,333,4.0,8.0,27,0.00,,,0.00,VWS V14.01,2013-02-27 00:06:00,
2013-02-26 16:11:00,65.5,30.7,29.70,NNW,332,2.0,8.0,27,0.00,,,0.00,VWS V14.01,2013-02-27 00:11:00,
2013-02-26 16:16:00,64.8,30.1,29.70,NNW,332,3.0,8.0,27,0.00,,,0.00,VWS V14.01,2013-02-27 00:16:00,
2013-02-26 16:21:00,64.1,29.5,29.70,NNW,331,5.0,8.0,27,0.00,,,0.00,VWS V14.01,2013-02-27 00:21:00,
2013-02-26 16:26:00,63.4,28.9,29.70,NNW,329,4.0,8.0,27,0.00,,,0.00,VWS V14.01,2013-02-27 00:26:00,
2013-02-26 16:30:00,65.4,40.5,29.74,North,0,2.0,6.0,40,0.00,,,0.00,VWS V14.01,2013-02-27 00:30:00,
2013-02-26 16:32:00,63.1,27.7,29.70,NNW,328,4.0,8.0,26,0.00,,,0.00,VWS V14.01,2013-02-27 00:32:00,
2013-02-26 16:37:00,62.8,26.5,29.70,NNW,330,3.0,8.0,25,0.00,,,0.00,VWS V14.01,2013-02-27 00:37:00,
2013-02-26 16:42:00,62.6,27.3,29.70,NNW,330,5.0,8.0,26,0.00,,,0.00,VWS V14.01,2013-02-27 00:42:00,
2013-02-26 16:47:00,62.2,26.0,29.70,NNW,337,5.0,8.0,25,0.00,,,0.00,VWS V14.01,2013-02-27 00:47:00,
2013-02-26 16:52:00,61.6,26.4,29.69,NNW,335,8.0,8.0,26,0.00,,,0.00,VWS V14.01,2013-02-27 00:52:00,
2013-02-26 16:57:00,61.2,27.0,29.70,NNW,335,5.0,8.0,27,0.00,,,0.00,VWS V14.01,2013-02-27 00:57:00,
2013-02-26 17:00:00,64.4,40.8,29.74,North,0,4.0,8.0,42,0.00,,,0.00,VWS V14.01,2013-02-27 01:00:00,
2013-02-26 17:02:00,60.8,26.6,29.71,NNW,340,4.0,8.0,27,0.00,,,0.00,VWS V14.01,2013-02-27 01:02:00,
2013-02-26 17:07:00,60.1,27.8,29.70,NNW,329,5.0,8.0,29,0.00,,,0.00,VWS V14.01,2013-02-27 01:07:00,
2013-02-26 17:12:00,59.5,26.4,29.70,NW,324,6.0,9.0,28,0.00,,,0.00,VWS V14.01,2013-02-27 01:12:00,
2013-02-26 17:17:00,59.1,26.0,29.71,NNW,330,5.0,9.0,28,0.00,,,0.00,VWS V14.01,2013-02-27 01:17:00,
2013-02-26 17:22:00,58.6,26.5,29.70,NNW,345,4.0,9.0,29,0.00,,,0.00,VWS V14.01,2013-02-27 01:22:00,
2013-02-26 17:27:00,58.1,25.2,29.71,NNW,327,6.0,9.0,28,0.00,,,0.00,VWS V14.01,2013-02-27 01:27:00,
2013-02-26 17:30:00,60.5,36.7,29.74,NNW,338,6.0,9.0,41,0.00,,,0.00,VWS V14.01,2013-02-27 01:30:00,
2013-02-26 17:32:00,57.7,24.0,29.70,NW,322,7.0,9.0,27,0.00,,,0.00,VWS V14.01,2013-02-27 01:32:00,
2013-02-26 17:37:00,57.4,25.4,29.71,NW,321,4.0,9.0,29,0.00,,,0.00,VWS V14.01,2013-02-27 01:37:00,
2013-02-26 17:42:00,57.1,25.2,29.71,NNW,331,2.0,9.0,29,0.00,,,0.00,VWS V14.01,2013-02-27 01:42:00,
2013-02-26 17:47:00,56.8,24.1,29.71,NNW,327,6.0,9.0,28,0.00,,,0.00,VWS V14.01,2013-02-27 01:47:00,
2013-02-26 17:52:00,56.4,22.9,29.71,NNW,329,6.0,9.0,27,0.00,,,0.00,VWS V14.01,2013-02-27 01:52:00,
2013-02-26 17:57:00,56.1,24.3,29.71,NNW,331,6.0,9.0,29,0.00,,,0.00,VWS V14.01,2013-02-27 01:57:00,
2013-02-26 18:00:00,58.0,37.9,29.74,NW,315,6.0,10.0,47,0.00,,,0.00,VWS V14.01,2013-02-27 02:00:00,
2013-02-26 18:02:00,55.6,25.5,29.71,NNW,339,5.0,9.0,31,0.00,,,0.00,VWS V14.01,2013-02-27 02:02:00,
2013-02-26 18:07:00,55.2,25.9,29.71,NNW,331,6.0,9.0,32,0.00,,,0.00,VWS V14.01,2013-02-27 02:07:00,
2013-02-26 18:12:00,54.8,26.3,29.71,NNW,328,7.0,9.0,33,0.00,,,0.00,VWS V14.01,2013-02-27 02:12:00,
2013-02-26 18:17:00,54.4,25.9,29.71,NNW,330,4.0,9.0,33,0.00,,,0.00,VWS V14.01,2013-02-27 02:17:00,
2013-02-26 18:22:00,54.1,27.1,29.71,NNW,327,5.0,9.0,35,0.00,,,0.00,VWS V14.01,2013-02-27 02:22:00,
2013-02-26 18:27:00,53.8,28.2,29.71,NW,325,7.0,9.0,37,0.00,,,0.00,VWS V14.01,2013-02-27 02:27:00,
2013-02-26 18:30:00,56.2,38.3,29.74,NW,315,2.0,6.0,51,0.00,,,0.00,VWS V14.01,2013-02-27 02:30:00,
2013-02-26 18:32:00,53.5,29.2,29.71,NNW,328,6.0,9.0,39,0.00,,,0.00,VWS V14.01,2013-02-27 02:32:00,
2013-02-26 18:37:00,53.2,29.5,29.72,NW,325,6.0,10.0,40,0.00,,,0.00,VWS V14.01,2013-02-27 02:37:00,
2013-02-26 18:42:00,52.9,30.5,29.71,NNW,331,5.0,10.0,42,0.00,,,0.00,VWS V14.01,2013-02-27 02:42:00,
2013-02-26 18:47:00,52.5,31.8,29.72,NW,324,8.0,10.0,45,0.00,,,0.00,VWS V14.01,2013-02-27 02:47:00,
2013-02-26 18:52:00,52.0,32.4,29.71,NW,322,4.0,10.0,47,0.00,,,0.00,VWS V14.01,2013-02-27 02:52:00,
2013-02-26 18:57:00,51.6,33.1,29.71,NNW,328,5.0,10.0,49,0.00,,,0.00,VWS V14.01,2013-02-27 02:57:00,
2013-02-26 19:00:00,54.1,38.8,29.74,NW,315,3.0,6.0,56,0.00,,,0.00,VWS V14.01,2013-02-27 03:00:00,
2013-02-26 19:02:00,51.3,32.8,29.72,NNW,328,4.0,10.0,49,0.00,,,0.00,VWS V14.01,2013-02-27 03:02:00,
2013-02-26 19:07:00,51.0,32.5,29.72,NNW,328,3.0,10.0,49,0.00,,,0.00,VWS V14.01,2013-02-27 03:07:00,
2013-02-26 19:12:00,51.2,32.7,29.72,NNW,327,7.0,10.0,49,0.00,,,0.00,VWS V14.01,2013-02-27 03:12:00,
2013-02-26 19:17:00,51.4,33.4,29.72,NW,326,3.0,10.0,50,0.00,,,0.00,VWS V14.01,2013-02-27 03:17:00,
2013-02-26 19:22:00,51.3,33.3,29.72,NW,326,4.0,10.0,50,0.00,,,0.00,VWS V14.01,2013-02-27 03:22:00,
2013-02-26 19:27:00,51.2,33.2,29.72,NW,326,5.0,10.0,50,0.00,,,0.00,VWS V14.01,2013-02-27 03:27:00,
2013-02-26 19:30:00,51.5,38.1,29.75,NW,315,4.0,8.0,60,0.00,,,0.00,VWS V14.01,2013-02-27 03:30:00,
2013-02-26 19:32:00,51.2,32.2,29.73,NW,326,4.0,10.0,48,0.00,,,0.00,VWS V14.01,2013-02-27 03:32:00,
2013-02-26 19:37:00,51.3,32.3,29.72,NNW,327,4.0,10.0,48,0.00,,,0.00,VWS V14.01,2013-02-27 03:37:00,
2013-02-26 19:42:00,51.3,32.3,29.73,NNW,332,5.0,10.0,48,0.00,,,0.00,VWS V14.01,2013-02-27 03:42:00,
2013-02-26 19:47:00,51.4,31.9,29.73,NNW,333,5.0,10.0,47,0.00,,,0.00,VWS V14.01,2013-02-27 03:47:00,
2013-02-26 19:52:00,51.6,32.0,29.73,NNW,339,4.0,10.0,47,0.00,,,0.00,VWS V14.01,2013-02-27 03:52:00,
2013-02-26 19:57:00,51.7,31.6,29.72,NNW,339,5.0,10.0,46,0.00,,,0.00,VWS V14.01,2013-02-27 03:57:00,
2013-02-26 20:00:00,50.0,37.5,29.76,NW,315,3.0,6.0,62,0.00,,,0.00,VWS V14.01,2013-02-27 04:00:00,
2013-02-26 20:02:00,51.8,31.7,29.73,NNW,341,4.0,10.0,46,0.00,,,0.00,VWS V14.01,2013-02-27 04:02:00,
2013-02-26 20:07:00,51.9,31.8,29.73,NNW,343,3.0,10.0,46,0.00,,,0.00,VWS V14.01,2013-02-27 04:07:00,
2013-02-26 20:12:00,51.9,31.8,29.73,NNW,342,5.0,10.0,46,0.00,,,0.00,VWS V14.01,2013-02-27 04:12:00,
2013-02-26 20:17:00,51.8,31.7,29.73,NNW,342,2.0,10.0,46,0.00,,,0.00,VWS V14.01,2013-02-27 04:17:00,
2013-02-26 20:22:00,51.7,31.6,29.74,NNW,343,3.0,10.0,46,0.00,,,0.00,VWS V14.01,2013-02-27 04:22:00,
2013-02-26 20:27:00,51.7,32.1,29.74,NNW,344,9.0,10.0,47,0.00,,,0.00,VWS V14.01,2013-02-27 04:27:00,
2013-02-26 20:30:00,49.2,37.2,29.76,NW,315,4.0,6.0,63,0.00,,,0.00,VWS V14.01,2013-02-27 04:30:00,
2013-02-26 20:32:00,51.5,33.0,29.74,North,349,2.0,10.0,49,0.00,,,0.00,VWS V14.01,2013-02-27 04:32:00,
2013-02-26 20:37:00,51.2,33.2,29.74,North,349,4.0,10.0,50,0.00,,,0.00,VWS V14.01,2013-02-27 04:37:00,
2013-02-26 20:42:00,50.9,32.9,29.74,North,349,3.0,10.0,50,0.00,,,0.00,VWS V14.01,2013-02-27 04:42:00,
2013-02-26 20:47:00,50.5,33.1,29.74,North,349,2.0,10.0,51,0.00,,,0.00,VWS V14.01,2013-02-27 04:47:00,
2013-02-26 20:52:00,50.2,33.3,29.74,North,349,2.0,10.0,52,0.00,,,0.00,VWS V14.01,2013-02-27 04:52:00,
2013-02-26 20:57:00,50.0,33.6,29.74,North,349,2.0,10.0,53,0.00,,,0.00,VWS V14.01,2013-02-27 04:57:00,
2013-02-26 21:00:00,48.4,36.4,29.75,NW,315,3.0,7.0,63,0.00,,,0.00,VWS V14.01,2013-02-27 05:00:00,
2013-02-26 21:02:00,49.7,33.8,29.74,North,349,2.0,10.0,54,0.00,,,0.00,VWS V14.01,2013-02-27 05:02:00,
2013-02-26 21:07:00,49.4,33.9,29.74,North,349,4.0,10.0,55,0.00,,,0.00,VWS V14.01,2013-02-27 05:07:00,
2013-02-26 21:12:00,49.3,33.8,29.74,North,349,3.0,10.0,55,0.00,,,0.00,VWS V14.01,2013-02-27 05:12:00,
2013-02-26 21:17:00,49.3,33.8,29.75,North,349,3.0,10.0,55,0.00,,,0.00,VWS V14.01,2013-02-27 05:17:00,
2013-02-26 21:22:00,49.4,33.9,29.75,North,349,3.0,10.0,55,0.00,,,0.00,VWS V14.01,2013-02-27 05:22:00,
2013-02-26 21:28:00,49.5,34.0,29.75,North,350,5.0,10.0,55,0.00,,,0.00,VWS V14.01,2013-02-27 05:28:00,
2013-02-26 21:30:00,47.9,36.7,29.75,NNW,338,3.0,6.0,65,0.00,,,0.00,VWS V14.01,2013-02-27 05:30:00,
2013-02-26 21:33:00,49.6,34.1,29.75,North,350,3.0,10.0,55,0.00,,,0.00,VWS V14.01,2013-02-27 05:33:00,
2013-02-26 21:38:00,49.6,34.1,29.75,North,350,2.0,10.0,55,0.00,,,0.00,VWS V14.01,2013-02-27 05:38:00,
2013-02-26 21:43:00,49.7,33.8,29.75,North,351,4.0,10.0,54,0.00,,,0.00,VWS V14.01,2013-02-27 05:43:00,
2013-02-26 21:48:00,49.8,33.8,29.75,North,350,2.0,10.0,54,0.00,,,0.00,VWS V14.01,2013-02-27 05:48:00,
2013-02-26 21:53:00,49.8,33.4,29.76,North,351,5.0,10.0,53,0.00,,,0.00,VWS V14.01,2013-02-27 05:53:00,
2013-02-26 21:58:00,50.0,33.6,29.75,North,351,3.0,10.0,53,0.00,,,0.00,VWS V14.01,2013-02-27 05:58:00,
2013-02-26 22:00:00,47.3,37.7,29.77,NNW,338,4.0,7.0,69,0.00,,,0.00,VWS V14.01,2013-02-27 06:00:00,
2013-02-26 22:03:00,50.1,33.7,29.76,North,351,3.0,10.0,53,0.00,,,0.00,VWS V14.01,2013-02-27 06:03:00,
2013-02-26 22:08:00,50.2,33.3,29.76,North,351,3.0,10.0,52,0.00,,,0.00,VWS V14.01,2013-02-27 06:08:00,
2013-02-26 22:13:00,50.2,33.3,29.76,North,350,1.0,10.0,52,0.00,,,0.00,VWS V14.01,2013-02-27 06:13:00,
2013-02-26 22:18:00,50.0,33.1,29.75,North,351,2.0,10.0,52,0.00,,,0.00,VWS V14.01,2013-02-27 06:18:00,
2013-02-26 22:23:00,49.9,33.5,29.76,North,351,2.0,10.0,53,0.00,,,0.00,VWS V14.01,2013-02-27 06:23:00,
2013-02-26 22:28:00,49.8,33.4,29.75,North,350,0.0,10.0,53,0.00,,,0.00,VWS V14.01,2013-02-27 06:28:00,
2013-02-26 22:30:00,46.2,37.3,29.76,NNW,338,3.0,6.0,71,0.00,,,0.00,VWS V14.01,2013-02-27 06:30:00,
2013-02-26 22:33:00,49.5,32.6,29.75,North,351,0.0,10.0,52,0.00,,,0.00,VWS V14.01,2013-02-27 06:33:00,
2013-02-26 22:38:00,49.4,32.5,29.75,North,351,2.0,10.0,52,0.00,,,0.00,VWS V14.01,2013-02-27 06:38:00,
2013-02-26 22:43:00,49.7,32.8,29.76,North,351,1.0,10.0,52,0.00,,,0.00,VWS V14.01,2013-02-27 06:43:00,
2013-02-26 22:48:00,50.0,32.6,29.76,North,351,1.0,10.0,51,0.00,,,0.00,VWS V14.01,2013-02-27 06:48:00,
2013-02-26 22:53:00,50.2,32.3,29.76,North,350,2.0,10.0,50,0.00,,,0.00,VWS V14.01,2013-02-27 06:53:00,
2013-02-26 22:58:00,50.2,32.3,29.77,North,351,3.0,10.0,50,0.00,,,0.00,VWS V14.01,2013-02-27 06:58:00,
2013-02-26 23:00:00,45.7,37.5,29.78,NNW,338,3.0,5.0,73,0.00,,,0.00,VWS V14.01,2013-02-27 07:00:00,
2013-02-26 23:03:00,50.2,31.8,29.77,North,351,2.0,10.0,49,0.00,,,0.00,VWS V14.01,2013-02-27 07:03:00,
2013-02-26 23:08:00,50.2,31.8,29.77,North,350,1.0,10.0,49,0.00,,,0.00,VWS V14.01,2013-02-27 07:08:00,
2013-02-26 23:13:00,50.0,32.1,29.77,North,351,1.0,10.0,50,0.00,,,0.00,VWS V14.01,2013-02-27 07:13:00,
2013-02-26 23:18:00,49.4,32.5,29.77,North,351,2.0,10.0,52,0.00,,,0.00,VWS V14.01,2013-02-27 07:18:00,
2013-02-26 23:23:00,48.7,32.8,29.76,North,351,1.0,10.0,54,0.00,,,0.00,VWS V14.01,2013-02-27 07:23:00,
2013-02-26 23:28:00,48.1,32.7,29.77,North,351,2.0,10.0,55,0.00,,,0.00,VWS V14.01,2013-02-27 07:28:00,
2013-02-26 23:30:00,45.6,37.8,29.77,NNW,338,3.0,5.0,74,0.00,,,0.00,VWS V14.01,2013-02-27 07:30:00,
2013-02-26 23:33:00,47.5,32.6,29.77,North,351,2.0,10.0,56,0.00,,,0.00,VWS V14.01,2013-02-27 07:33:00,
2013-02-26 23:38:00,47.1,32.7,29.77,North,351,3.0,10.0,57,0.00,,,0.00,VWS V14.01,2013-02-27 07:38:00,
2013-02-26 23:43:00,46.8,32.8,29.77,North,351,3.0,10.0,58,0.00,,,0.00,VWS V14.01,2013-02-27 07:43:00,
2013-02-26 23:48:00,46.6,33.0,29.78,North,351,2.0,10.0,59,0.00,,,0.00,VWS V14.01,2013-02-27 07:48:00,
2013-02-26 23:53:00,46.3,32.8,29.77,North,351,1.0,10.0,59,0.00,,,0.00,VWS V14.01,2013-02-27 07:53:00,
2013-02-26 23:58:00,46.2,32.7,29.77,North,351,2.0,10.0,59,0.00,,,0.00,VWS V14.01,2013-02-27 07:58:00,